sensor_id;sensor_type;location;lat;lon;timestamp;P1;durP1;ratioP1;P2;durP2;ratioP2
32172;SDS011;18679;45.190;5.722;2022-10-17T00:02:01;5.70;;;2.38;;
32172;SDS011;18679;45.190;5.722;2022-10-17T00:05:02;5.80;;;2.72;;
32172;SDS011;18679;45.190;5.722;2022-10-17T00:08:03;7.55;;;2.30;;
32172;SDS011;18679;45.190;5.722;2022-10-17T00:11:07;5.45;;;1.90;;
32172;SDS011;18679;45.190;5.722;2022-10-17T00:14:12;2.40;;;1.70;;
32172;SDS011;18679;45.190;5.722;2022-10-17T00:17:13;2.45;;;1.48;;
32172;SDS011;18679;45.190;5.722;2022-10-17T00:20:15;4.15;;;1.40;;
32172;SDS011;18679;45.190;5.722;2022-10-17T00:23:16;4.00;;;1.80;;
32172;SDS011;18679;45.190;5.722;2022-10-17T00:26:18;5.47;;;1.42;;
32172;SDS011;18679;45.190;5.722;2022-10-17T00:29:20;6.40;;;1.70;;
32172;SDS011;18679;45.190;5.722;2022-10-17T00:32:21;3.15;;;1.75;;
32172;SDS011;18679;45.190;5.722;2022-10-17T00:35:22;3.10;;;1.88;;
32172;SDS011;18679;45.190;5.722;2022-10-17T00:38:23;2.17;;;1.67;;
32172;SDS011;18679;45.190;5.722;2022-10-17T00:41:26;5.47;;;1.45;;
32172;SDS011;18679;45.190;5.722;2022-10-17T00:47:30;1.58;;;1.25;;
32172;SDS011;18679;45.190;5.722;2022-10-17T00:50:33;3.85;;;1.92;;
32172;SDS011;18679;45.190;5.722;2022-10-17T00:53:36;3.05;;;1.67;;
32172;SDS011;18679;45.190;5.722;2022-10-17T00:56:39;4.05;;;1.95;;
32172;SDS011;18679;45.190;5.722;2022-10-17T00:59:40;6.18;;;1.95;;
32172;SDS011;18679;45.190;5.722;2022-10-17T01:02:47;3.67;;;1.80;;
32172;SDS011;18679;45.190;5.722;2022-10-17T01:05:50;2.83;;;2.00;;
32172;SDS011;18679;45.190;5.722;2022-10-17T01:08:51;3.10;;;1.65;;
32172;SDS011;18679;45.190;5.722;2022-10-17T01:11:56;7.18;;;2.20;;
32172;SDS011;18679;45.190;5.722;2022-10-17T01:18:24;9.10;;;2.13;;
32172;SDS011;18679;45.190;5.722;2022-10-17T01:29:08;6.88;;;1.48;;
32172;SDS011;18679;45.190;5.722;2022-10-17T01:31:46;4.13;;;2.03;;
32172;SDS011;18679;45.190;5.722;2022-10-17T01:35:19;5.97;;;1.40;;
32172;SDS011;18679;45.190;5.722;2022-10-17T01:38:56;6.97;;;1.73;;
32172;SDS011;18679;45.190;5.722;2022-10-17T01:42:14;3.80;;;1.85;;
32172;SDS011;18679;45.190;5.722;2022-10-17T01:45:31;7.07;;;2.13;;
32172;SDS011;18679;45.190;5.722;2022-10-17T01:48:38;10.90;;;2.65;;
32172;SDS011;18679;45.190;5.722;2022-10-17T01:54:51;4.05;;;1.80;;
32172;SDS011;18679;45.190;5.722;2022-10-17T01:58:20;3.58;;;1.88;;
32172;SDS011;18679;45.190;5.722;2022-10-17T02:01:23;6.22;;;2.50;;
32172;SDS011;18679;45.190;5.722;2022-10-17T02:04:27;6.38;;;2.50;;
32172;SDS011;18679;45.190;5.722;2022-10-17T02:07:28;8.70;;;2.58;;
32172;SDS011;18679;45.190;5.722;2022-10-17T02:10:31;5.47;;;2.70;;
32172;SDS011;18679;45.190;5.722;2022-10-17T02:27:13;3.92;;;1.83;;
32172;SDS011;18679;45.190;5.722;2022-10-17T02:30:25;4.53;;;2.10;;
32172;SDS011;18679;45.190;5.722;2022-10-17T02:36:59;3.28;;;1.50;;
32172;SDS011;18679;45.190;5.722;2022-10-17T02:40:04;2.92;;;1.48;;
32172;SDS011;18679;45.190;5.722;2022-10-17T02:43:11;3.60;;;1.75;;
32172;SDS011;18679;45.190;5.722;2022-10-17T02:46:14;9.60;;;1.95;;
32172;SDS011;18679;45.190;5.722;2022-10-17T02:49:24;3.23;;;1.70;;
32172;SDS011;18679;45.190;5.722;2022-10-17T02:52:35;15.55;;;2.08;;
32172;SDS011;18679;45.190;5.722;2022-10-17T02:55:52;2.60;;;1.90;;
32172;SDS011;18679;45.190;5.722;2022-10-17T02:58:58;6.00;;;2.15;;
32172;SDS011;18679;45.190;5.722;2022-10-17T03:02:03;4.75;;;1.77;;
32172;SDS011;18679;45.190;5.722;2022-10-17T03:05:05;3.10;;;1.90;;
32172;SDS011;18679;45.190;5.722;2022-10-17T03:08:07;3.58;;;2.15;;
32172;SDS011;18679;45.190;5.722;2022-10-17T03:11:08;10.80;;;2.22;;
32172;SDS011;18679;45.190;5.722;2022-10-17T03:14:09;2.78;;;2.13;;
32172;SDS011;18679;45.190;5.722;2022-10-17T03:17:10;4.85;;;1.90;;
32172;SDS011;18679;45.190;5.722;2022-10-17T03:20:11;4.53;;;2.05;;
32172;SDS011;18679;45.190;5.722;2022-10-17T03:23:12;6.55;;;2.33;;
32172;SDS011;18679;45.190;5.722;2022-10-17T03:26:14;3.40;;;1.83;;
32172;SDS011;18679;45.190;5.722;2022-10-17T03:29:15;7.25;;;2.10;;
32172;SDS011;18679;45.190;5.722;2022-10-17T03:32:16;4.35;;;2.50;;
32172;SDS011;18679;45.190;5.722;2022-10-17T03:35:17;11.52;;;2.22;;
32172;SDS011;18679;45.190;5.722;2022-10-17T03:38:22;4.00;;;2.33;;
32172;SDS011;18679;45.190;5.722;2022-10-17T03:41:22;5.78;;;2.20;;
32172;SDS011;18679;45.190;5.722;2022-10-17T03:44:23;6.60;;;2.10;;
32172;SDS011;18679;45.190;5.722;2022-10-17T03:47:24;3.55;;;2.00;;
32172;SDS011;18679;45.190;5.722;2022-10-17T03:50:25;6.13;;;2.10;;
32172;SDS011;18679;45.190;5.722;2022-10-17T03:53:26;6.32;;;2.13;;
32172;SDS011;18679;45.190;5.722;2022-10-17T03:56:28;5.97;;;2.08;;
32172;SDS011;18679;45.190;5.722;2022-10-17T03:59:37;3.78;;;2.50;;
32172;SDS011;18679;45.190;5.722;2022-10-17T04:02:45;7.95;;;3.38;;
32172;SDS011;18679;45.190;5.722;2022-10-17T04:05:51;7.88;;;3.00;;
32172;SDS011;18679;45.190;5.722;2022-10-17T04:08:52;6.20;;;3.00;;
32172;SDS011;18679;45.190;5.722;2022-10-17T04:12:00;20.83;;;3.28;;
32172;SDS011;18679;45.190;5.722;2022-10-17T04:15:03;5.22;;;3.05;;
32172;SDS011;18679;45.190;5.722;2022-10-17T04:18:04;13.70;;;2.55;;
32172;SDS011;18679;45.190;5.722;2022-10-17T04:21:05;3.85;;;2.80;;
32172;SDS011;18679;45.190;5.722;2022-10-17T04:24:07;5.32;;;3.10;;
32172;SDS011;18679;45.190;5.722;2022-10-17T04:27:26;9.18;;;3.60;;
32172;SDS011;18679;45.190;5.722;2022-10-17T04:30:27;5.63;;;3.55;;
32172;SDS011;18679;45.190;5.722;2022-10-17T04:33:28;7.15;;;4.20;;
32172;SDS011;18679;45.190;5.722;2022-10-17T04:36:29;8.88;;;3.42;;
32172;SDS011;18679;45.190;5.722;2022-10-17T04:39:30;11.07;;;4.10;;
32172;SDS011;18679;45.190;5.722;2022-10-17T04:42:33;10.70;;;4.15;;
32172;SDS011;18679;45.190;5.722;2022-10-17T04:45:34;8.45;;;3.40;;
32172;SDS011;18679;45.190;5.722;2022-10-17T04:48:37;5.38;;;3.30;;
32172;SDS011;18679;45.190;5.722;2022-10-17T04:51:39;13.10;;;3.22;;
32172;SDS011;18679;45.190;5.722;2022-10-17T04:55:09;6.75;;;2.25;;
32172;SDS011;18679;45.190;5.722;2022-10-17T04:58:10;10.48;;;3.15;;
32172;SDS011;18679;45.190;5.722;2022-10-17T05:01:15;7.68;;;3.67;;
32172;SDS011;18679;45.190;5.722;2022-10-17T05:04:22;12.70;;;3.67;;
32172;SDS011;18679;45.190;5.722;2022-10-17T05:07:24;5.18;;;3.67;;
32172;SDS011;18679;45.190;5.722;2022-10-17T05:10:39;7.95;;;4.00;;
32172;SDS011;18679;45.190;5.722;2022-10-17T05:13:41;10.10;;;3.47;;
32172;SDS011;18679;45.190;5.722;2022-10-17T05:16:42;11.05;;;4.35;;
32172;SDS011;18679;45.190;5.722;2022-10-17T05:19:43;22.70;;;4.63;;
32172;SDS011;18679;45.190;5.722;2022-10-17T05:22:45;9.10;;;4.13;;
32172;SDS011;18679;45.190;5.722;2022-10-17T05:25:46;11.45;;;5.45;;
32172;SDS011;18679;45.190;5.722;2022-10-17T05:28:49;12.75;;;5.55;;
32172;SDS011;18679;45.190;5.722;2022-10-17T05:31:53;8.32;;;5.00;;
32172;SDS011;18679;45.190;5.722;2022-10-17T05:34:54;9.20;;;5.45;;
32172;SDS011;18679;45.190;5.722;2022-10-17T05:37:57;11.27;;;5.07;;
32172;SDS011;18679;45.190;5.722;2022-10-17T05:41:00;7.05;;;4.50;;
32172;SDS011;18679;45.190;5.722;2022-10-17T05:44:04;11.77;;;4.93;;
32172;SDS011;18679;45.190;5.722;2022-10-17T05:47:13;8.35;;;3.85;;
32172;SDS011;18679;45.190;5.722;2022-10-17T05:50:15;13.45;;;3.50;;
32172;SDS011;18679;45.190;5.722;2022-10-17T05:53:34;6.60;;;3.13;;
32172;SDS011;18679;45.190;5.722;2022-10-17T05:56:40;16.48;;;3.17;;
32172;SDS011;18679;45.190;5.722;2022-10-17T05:59:41;18.58;;;3.58;;
32172;SDS011;18679;45.190;5.722;2022-10-17T06:02:46;17.00;;;3.15;;
32172;SDS011;18679;45.190;5.722;2022-10-17T06:05:49;5.28;;;2.25;;
32172;SDS011;18679;45.190;5.722;2022-10-17T06:08:51;9.55;;;2.60;;
32172;SDS011;18679;45.190;5.722;2022-10-17T06:11:58;9.32;;;2.70;;
32172;SDS011;18679;45.190;5.722;2022-10-17T06:14:59;15.52;;;2.58;;
32172;SDS011;18679;45.190;5.722;2022-10-17T06:18:00;9.35;;;2.53;;
32172;SDS011;18679;45.190;5.722;2022-10-17T06:21:04;12.30;;;3.40;;
32172;SDS011;18679;45.190;5.722;2022-10-17T06:24:07;8.98;;;2.85;;
32172;SDS011;18679;45.190;5.722;2022-10-17T06:27:10;3.40;;;2.30;;
32172;SDS011;18679;45.190;5.722;2022-10-17T06:30:11;12.30;;;3.45;;
32172;SDS011;18679;45.190;5.722;2022-10-17T06:33:11;7.28;;;2.60;;
32172;SDS011;18679;45.190;5.722;2022-10-17T06:36:13;5.93;;;2.60;;
32172;SDS011;18679;45.190;5.722;2022-10-17T06:39:14;17.08;;;3.42;;
32172;SDS011;18679;45.190;5.722;2022-10-17T06:42:21;8.80;;;3.20;;
32172;SDS011;18679;45.190;5.722;2022-10-17T06:45:37;10.00;;;3.30;;
32172;SDS011;18679;45.190;5.722;2022-10-17T06:48:59;11.50;;;3.10;;
32172;SDS011;18679;45.190;5.722;2022-10-17T06:52:26;6.43;;;3.00;;
32172;SDS011;18679;45.190;5.722;2022-10-17T06:55:56;8.60;;;3.03;;
32172;SDS011;18679;45.190;5.722;2022-10-17T06:59:22;13.00;;;3.25;;
32172;SDS011;18679;45.190;5.722;2022-10-17T07:02:30;6.17;;;3.27;;
32172;SDS011;18679;45.190;5.722;2022-10-17T07:05:33;7.75;;;3.47;;
32172;SDS011;18679;45.190;5.722;2022-10-17T07:08:34;10.38;;;4.03;;
32172;SDS011;18679;45.190;5.722;2022-10-17T07:11:36;7.45;;;3.08;;
32172;SDS011;18679;45.190;5.722;2022-10-17T07:14:37;9.65;;;2.95;;
32172;SDS011;18679;45.190;5.722;2022-10-17T07:17:38;16.02;;;2.70;;
32172;SDS011;18679;45.190;5.722;2022-10-17T07:20:39;5.07;;;2.53;;
32172;SDS011;18679;45.190;5.722;2022-10-17T07:23:40;9.68;;;2.88;;
32172;SDS011;18679;45.190;5.722;2022-10-17T07:26:41;3.58;;;2.47;;
32172;SDS011;18679;45.190;5.722;2022-10-17T07:29:42;8.10;;;2.97;;
32172;SDS011;18679;45.190;5.722;2022-10-17T07:32:53;5.50;;;2.95;;
32172;SDS011;18679;45.190;5.722;2022-10-17T07:35:56;15.18;;;2.85;;
32172;SDS011;18679;45.190;5.722;2022-10-17T07:38:58;7.35;;;2.78;;
32172;SDS011;18679;45.190;5.722;2022-10-17T07:42:00;8.02;;;3.75;;
32172;SDS011;18679;45.190;5.722;2022-10-17T07:45:02;5.32;;;2.65;;
32172;SDS011;18679;45.190;5.722;2022-10-17T07:48:06;12.18;;;3.33;;
32172;SDS011;18679;45.190;5.722;2022-10-17T07:51:07;5.95;;;3.17;;
32172;SDS011;18679;45.190;5.722;2022-10-17T07:54:09;8.85;;;3.15;;
32172;SDS011;18679;45.190;5.722;2022-10-17T07:57:09;10.23;;;3.35;;
32172;SDS011;18679;45.190;5.722;2022-10-17T08:00:10;11.85;;;4.68;;
32172;SDS011;18679;45.190;5.722;2022-10-17T08:03:14;12.18;;;3.38;;
32172;SDS011;18679;45.190;5.722;2022-10-17T08:06:15;16.00;;;3.63;;
32172;SDS011;18679;45.190;5.722;2022-10-17T08:09:17;7.57;;;2.97;;
32172;SDS011;18679;45.190;5.722;2022-10-17T08:12:18;7.80;;;2.78;;
32172;SDS011;18679;45.190;5.722;2022-10-17T08:15:19;5.70;;;2.55;;
32172;SDS011;18679;45.190;5.722;2022-10-17T08:18:20;6.05;;;2.72;;
32172;SDS011;18679;45.190;5.722;2022-10-17T08:21:21;14.10;;;3.03;;
32172;SDS011;18679;45.190;5.722;2022-10-17T08:24:23;9.30;;;3.03;;
32172;SDS011;18679;45.190;5.722;2022-10-17T08:27:24;10.48;;;2.92;;
32172;SDS011;18679;45.190;5.722;2022-10-17T08:30:27;10.00;;;3.40;;
32172;SDS011;18679;45.190;5.722;2022-10-17T08:33:29;5.15;;;3.05;;
32172;SDS011;18679;45.190;5.722;2022-10-17T08:36:32;6.97;;;3.33;;
32172;SDS011;18679;45.190;5.722;2022-10-17T08:39:33;6.72;;;3.60;;
32172;SDS011;18679;45.190;5.722;2022-10-17T08:45:59;14.88;;;4.05;;
32172;SDS011;18679;45.190;5.722;2022-10-17T08:49:03;13.18;;;3.50;;
32172;SDS011;18679;45.190;5.722;2022-10-17T08:52:14;7.72;;;2.17;;
32172;SDS011;18679;45.190;5.722;2022-10-17T08:55:39;7.75;;;2.95;;
32172;SDS011;18679;45.190;5.722;2022-10-17T08:58:45;7.35;;;2.90;;
32172;SDS011;18679;45.190;5.722;2022-10-17T09:01:47;3.13;;;2.10;;
32172;SDS011;18679;45.190;5.722;2022-10-17T09:17:57;10.63;;;2.40;;
32172;SDS011;18679;45.190;5.722;2022-10-17T09:21:16;13.02;;;4.45;;
32172;SDS011;18679;45.190;5.722;2022-10-17T09:30:37;8.02;;;3.58;;
32172;SDS011;18679;45.190;5.722;2022-10-17T09:33:44;10.35;;;3.00;;
32172;SDS011;18679;45.190;5.722;2022-10-17T09:36:46;6.15;;;2.97;;
32172;SDS011;18679;45.190;5.722;2022-10-17T09:39:47;4.80;;;2.47;;
32172;SDS011;18679;45.190;5.722;2022-10-17T09:42:48;3.72;;;2.33;;
32172;SDS011;18679;45.190;5.722;2022-10-17T09:46:14;15.00;;;3.08;;
32172;SDS011;18679;45.190;5.722;2022-10-17T09:49:33;13.57;;;2.85;;
32172;SDS011;18679;45.190;5.722;2022-10-17T09:52:38;4.47;;;2.63;;
32172;SDS011;18679;45.190;5.722;2022-10-17T09:55:48;11.48;;;3.05;;
32172;SDS011;18679;45.190;5.722;2022-10-17T09:59:01;12.77;;;3.17;;
32172;SDS011;18679;45.190;5.722;2022-10-17T10:05:19;13.00;;;3.42;;
32172;SDS011;18679;45.190;5.722;2022-10-17T10:08:21;9.77;;;3.10;;
32172;SDS011;18679;45.190;5.722;2022-10-17T10:11:42;6.35;;;3.08;;
32172;SDS011;18679;45.190;5.722;2022-10-17T10:14:50;12.93;;;2.65;;
32172;SDS011;18679;45.190;5.722;2022-10-17T10:17:51;15.45;;;3.28;;
32172;SDS011;18679;45.190;5.722;2022-10-17T10:27:13;6.70;;;3.55;;
32172;SDS011;18679;45.190;5.722;2022-10-17T10:30:16;6.97;;;2.90;;
32172;SDS011;18679;45.190;5.722;2022-10-17T10:33:19;8.50;;;3.30;;
32172;SDS011;18679;45.190;5.722;2022-10-17T10:36:22;7.72;;;2.67;;
32172;SDS011;18679;45.190;5.722;2022-10-17T10:39:28;20.10;;;3.40;;
32172;SDS011;18679;45.190;5.722;2022-10-17T10:42:39;10.07;;;2.88;;
32172;SDS011;18679;45.190;5.722;2022-10-17T10:45:42;13.63;;;3.83;;
32172;SDS011;18679;45.190;5.722;2022-10-17T10:51:59;11.05;;;2.25;;
32172;SDS011;18679;45.190;5.722;2022-10-17T10:55:04;5.90;;;2.20;;
32172;SDS011;18679;45.190;5.722;2022-10-17T10:58:41;4.15;;;2.13;;
32172;SDS011;18679;45.190;5.722;2022-10-17T11:02:09;11.75;;;3.05;;
32172;SDS011;18679;45.190;5.722;2022-10-17T11:12:00;7.95;;;2.60;;
32172;SDS011;18679;45.190;5.722;2022-10-17T11:15:22;8.65;;;2.50;;
32172;SDS011;18679;45.190;5.722;2022-10-17T11:18:29;3.45;;;2.30;;
32172;SDS011;18679;45.190;5.722;2022-10-17T11:21:47;3.08;;;1.77;;
32172;SDS011;18679;45.190;5.722;2022-10-17T11:25:03;12.10;;;2.40;;
32172;SDS011;18679;45.190;5.722;2022-10-17T11:28:19;5.35;;;2.50;;
32172;SDS011;18679;45.190;5.722;2022-10-17T11:31:24;4.85;;;2.13;;
32172;SDS011;18679;45.190;5.722;2022-10-17T11:34:31;3.67;;;2.05;;
32172;SDS011;18679;45.190;5.722;2022-10-17T11:37:38;13.98;;;2.47;;
32172;SDS011;18679;45.190;5.722;2022-10-17T11:40:44;5.03;;;2.58;;
32172;SDS011;18679;45.190;5.722;2022-10-17T11:43:57;5.87;;;2.37;;
32172;SDS011;18679;45.190;5.722;2022-10-17T11:53:25;13.30;;;2.05;;
32172;SDS011;18679;45.190;5.722;2022-10-17T11:56:34;8.85;;;2.38;;
32172;SDS011;18679;45.190;5.722;2022-10-17T12:06:19;3.38;;;1.75;;
32172;SDS011;18679;45.190;5.722;2022-10-17T12:14:01;4.38;;;1.88;;
32172;SDS011;18679;45.190;5.722;2022-10-17T12:16:35;3.53;;;1.77;;
32172;SDS011;18679;45.190;5.722;2022-10-17T12:19:38;4.13;;;1.90;;
32172;SDS011;18679;45.190;5.722;2022-10-17T12:22:45;4.30;;;1.63;;
32172;SDS011;18679;45.190;5.722;2022-10-17T12:28:47;11.98;;;1.77;;
32172;SDS011;18679;45.190;5.722;2022-10-17T12:31:49;3.50;;;1.80;;
32172;SDS011;18679;45.190;5.722;2022-10-17T12:34:54;4.78;;;1.70;;
32172;SDS011;18679;45.190;5.722;2022-10-17T12:41:03;12.02;;;1.80;;
32172;SDS011;18679;45.190;5.722;2022-10-17T12:54:07;6.05;;;1.65;;
32172;SDS011;18679;45.190;5.722;2022-10-17T13:00:54;5.05;;;1.70;;
32172;SDS011;18679;45.190;5.722;2022-10-17T13:03:57;5.45;;;1.85;;
32172;SDS011;18679;45.190;5.722;2022-10-17T13:07:04;4.35;;;1.90;;
32172;SDS011;18679;45.190;5.722;2022-10-17T13:10:25;6.22;;;1.80;;
32172;SDS011;18679;45.190;5.722;2022-10-17T13:16:52;11.75;;;2.10;;
32172;SDS011;18679;45.190;5.722;2022-10-17T13:20:05;6.25;;;1.40;;
32172;SDS011;18679;45.190;5.722;2022-10-17T13:23:24;4.43;;;1.80;;
32172;SDS011;18679;45.190;5.722;2022-10-17T13:26:32;10.80;;;2.25;;
32172;SDS011;18679;45.190;5.722;2022-10-17T13:29:33;7.63;;;2.20;;
32172;SDS011;18679;45.190;5.722;2022-10-17T13:32:36;3.40;;;1.85;;
32172;SDS011;18679;45.190;5.722;2022-10-17T13:35:38;2.53;;;1.73;;
32172;SDS011;18679;45.190;5.722;2022-10-17T13:38:39;6.72;;;1.98;;
32172;SDS011;18679;45.190;5.722;2022-10-17T13:41:41;4.47;;;1.70;;
32172;SDS011;18679;45.190;5.722;2022-10-17T13:44:42;5.47;;;1.55;;
32172;SDS011;18679;45.190;5.722;2022-10-17T13:47:43;6.68;;;1.67;;
32172;SDS011;18679;45.190;5.722;2022-10-17T13:50:46;3.97;;;2.00;;
32172;SDS011;18679;45.190;5.722;2022-10-17T13:53:49;8.25;;;2.00;;
32172;SDS011;18679;45.190;5.722;2022-10-17T13:56:54;4.63;;;1.90;;
32172;SDS011;18679;45.190;5.722;2022-10-17T13:59:57;4.90;;;1.95;;
32172;SDS011;18679;45.190;5.722;2022-10-17T14:03:12;5.78;;;1.80;;
32172;SDS011;18679;45.190;5.722;2022-10-17T14:06:15;7.70;;;1.85;;
32172;SDS011;18679;45.190;5.722;2022-10-17T14:09:21;7.00;;;1.85;;
32172;SDS011;18679;45.190;5.722;2022-10-17T14:12:22;5.72;;;1.88;;
32172;SDS011;18679;45.190;5.722;2022-10-17T14:15:25;9.93;;;2.35;;
32172;SDS011;18679;45.190;5.722;2022-10-17T14:18:29;7.90;;;2.20;;
32172;SDS011;18679;45.190;5.722;2022-10-17T14:21:33;4.80;;;1.92;;
32172;SDS011;18679;45.190;5.722;2022-10-17T14:24:36;6.07;;;2.40;;
32172;SDS011;18679;45.190;5.722;2022-10-17T14:27:52;4.97;;;2.10;;
32172;SDS011;18679;45.190;5.722;2022-10-17T14:34:27;7.15;;;2.00;;
32172;SDS011;18679;45.190;5.722;2022-10-17T14:40:52;4.32;;;2.30;;
32172;SDS011;18679;45.190;5.722;2022-10-17T14:44:31;4.68;;;2.20;;
32172;SDS011;18679;45.190;5.722;2022-10-17T14:47:34;9.48;;;2.67;;
32172;SDS011;18679;45.190;5.722;2022-10-17T14:50:35;8.55;;;2.28;;
32172;SDS011;18679;45.190;5.722;2022-10-17T14:53:37;5.95;;;2.33;;
32172;SDS011;18679;45.190;5.722;2022-10-17T14:56:39;11.68;;;2.30;;
32172;SDS011;18679;45.190;5.722;2022-10-17T14:59:41;6.60;;;2.40;;
32172;SDS011;18679;45.190;5.722;2022-10-17T15:02:42;3.88;;;2.25;;
32172;SDS011;18679;45.190;5.722;2022-10-17T15:05:46;6.60;;;2.58;;
32172;SDS011;18679;45.190;5.722;2022-10-17T15:08:48;7.55;;;1.80;;
32172;SDS011;18679;45.190;5.722;2022-10-17T15:11:49;5.03;;;2.05;;
32172;SDS011;18679;45.190;5.722;2022-10-17T15:14:50;14.25;;;2.13;;
32172;SDS011;18679;45.190;5.722;2022-10-17T15:17:52;5.53;;;1.98;;
32172;SDS011;18679;45.190;5.722;2022-10-17T15:20:54;3.55;;;1.80;;
32172;SDS011;18679;45.190;5.722;2022-10-17T15:23:56;4.55;;;2.33;;
32172;SDS011;18679;45.190;5.722;2022-10-17T15:26:57;9.13;;;2.63;;
32172;SDS011;18679;45.190;5.722;2022-10-17T15:29:58;6.95;;;2.72;;
32172;SDS011;18679;45.190;5.722;2022-10-17T15:32:59;4.05;;;2.20;;
32172;SDS011;18679;45.190;5.722;2022-10-17T15:36:00;4.65;;;2.03;;
32172;SDS011;18679;45.190;5.722;2022-10-17T15:39:02;2.65;;;1.80;;
32172;SDS011;18679;45.190;5.722;2022-10-17T15:42:04;2.80;;;2.13;;
32172;SDS011;18679;45.190;5.722;2022-10-17T15:45:13;2.83;;;2.15;;
32172;SDS011;18679;45.190;5.722;2022-10-17T15:48:17;3.42;;;1.92;;
32172;SDS011;18679;45.190;5.722;2022-10-17T15:51:22;7.47;;;2.33;;
32172;SDS011;18679;45.190;5.722;2022-10-17T15:54:23;7.90;;;2.60;;
32172;SDS011;18679;45.190;5.722;2022-10-17T15:57:28;11.95;;;2.45;;
32172;SDS011;18679;45.190;5.722;2022-10-17T16:00:30;2.92;;;2.33;;
32172;SDS011;18679;45.190;5.722;2022-10-17T16:03:32;7.03;;;2.20;;
32172;SDS011;18679;45.190;5.722;2022-10-17T16:06:33;6.65;;;2.47;;
32172;SDS011;18679;45.190;5.722;2022-10-17T16:09:34;7.32;;;2.17;;
32172;SDS011;18679;45.190;5.722;2022-10-17T16:12:36;9.55;;;2.42;;
32172;SDS011;18679;45.190;5.722;2022-10-17T16:15:42;5.28;;;2.50;;
32172;SDS011;18679;45.190;5.722;2022-10-17T16:18:42;9.88;;;2.40;;
32172;SDS011;18679;45.190;5.722;2022-10-17T16:21:43;9.52;;;2.70;;
32172;SDS011;18679;45.190;5.722;2022-10-17T16:24:44;3.53;;;2.00;;
32172;SDS011;18679;45.190;5.722;2022-10-17T16:27:46;9.77;;;2.65;;
32172;SDS011;18679;45.190;5.722;2022-10-17T16:30:47;9.77;;;2.28;;
32172;SDS011;18679;45.190;5.722;2022-10-17T16:33:49;8.77;;;2.47;;
32172;SDS011;18679;45.190;5.722;2022-10-17T16:36:51;6.93;;;2.28;;
32172;SDS011;18679;45.190;5.722;2022-10-17T16:39:52;7.75;;;2.60;;
32172;SDS011;18679;45.190;5.722;2022-10-17T16:42:53;5.78;;;2.50;;
32172;SDS011;18679;45.190;5.722;2022-10-17T16:45:54;7.93;;;2.47;;
32172;SDS011;18679;45.190;5.722;2022-10-17T16:48:55;5.05;;;2.50;;
32172;SDS011;18679;45.190;5.722;2022-10-17T16:51:56;7.90;;;2.28;;
32172;SDS011;18679;45.190;5.722;2022-10-17T16:54:58;6.05;;;2.30;;
32172;SDS011;18679;45.190;5.722;2022-10-17T16:57:58;3.65;;;2.20;;
32172;SDS011;18679;45.190;5.722;2022-10-17T17:01:04;8.52;;;2.35;;
32172;SDS011;18679;45.190;5.722;2022-10-17T17:04:06;8.40;;;2.17;;
32172;SDS011;18679;45.190;5.722;2022-10-17T17:07:08;4.30;;;2.30;;
32172;SDS011;18679;45.190;5.722;2022-10-17T17:10:09;6.47;;;2.60;;
32172;SDS011;18679;45.190;5.722;2022-10-17T17:13:10;6.05;;;2.33;;
32172;SDS011;18679;45.190;5.722;2022-10-17T17:16:12;9.40;;;2.25;;
32172;SDS011;18679;45.190;5.722;2022-10-17T17:19:20;6.60;;;2.22;;
32172;SDS011;18679;45.190;5.722;2022-10-17T17:22:21;3.47;;;2.30;;
32172;SDS011;18679;45.190;5.722;2022-10-17T17:25:22;7.03;;;2.63;;
32172;SDS011;18679;45.190;5.722;2022-10-17T17:28:23;10.15;;;2.45;;
32172;SDS011;18679;45.190;5.722;2022-10-17T17:31:26;16.20;;;2.97;;
32172;SDS011;18679;45.190;5.722;2022-10-17T17:34:28;10.25;;;2.58;;
32172;SDS011;18679;45.190;5.722;2022-10-17T17:37:31;11.02;;;2.47;;
32172;SDS011;18679;45.190;5.722;2022-10-17T17:40:32;13.05;;;3.08;;
32172;SDS011;18679;45.190;5.722;2022-10-17T17:43:34;7.40;;;2.85;;
32172;SDS011;18679;45.190;5.722;2022-10-17T17:46:35;10.25;;;2.65;;
32172;SDS011;18679;45.190;5.722;2022-10-17T17:49:36;8.18;;;2.67;;
32172;SDS011;18679;45.190;5.722;2022-10-17T17:52:36;6.03;;;2.53;;
32172;SDS011;18679;45.190;5.722;2022-10-17T17:55:41;6.18;;;2.70;;
32172;SDS011;18679;45.190;5.722;2022-10-17T17:58:45;9.60;;;2.97;;
32172;SDS011;18679;45.190;5.722;2022-10-17T18:01:47;8.52;;;2.72;;
32172;SDS011;18679;45.190;5.722;2022-10-17T18:04:48;6.00;;;2.55;;
32172;SDS011;18679;45.190;5.722;2022-10-17T18:07:49;10.40;;;2.92;;
32172;SDS011;18679;45.190;5.722;2022-10-17T18:10:50;7.55;;;3.35;;
32172;SDS011;18679;45.190;5.722;2022-10-17T18:13:54;8.80;;;3.67;;
32172;SDS011;18679;45.190;5.722;2022-10-17T18:16:56;11.30;;;3.10;;
32172;SDS011;18679;45.190;5.722;2022-10-17T18:19:56;4.93;;;2.63;;
32172;SDS011;18679;45.190;5.722;2022-10-17T18:22:58;6.63;;;3.28;;
32172;SDS011;18679;45.190;5.722;2022-10-17T18:25:59;7.15;;;2.97;;
32172;SDS011;18679;45.190;5.722;2022-10-17T18:29:00;5.57;;;2.95;;
32172;SDS011;18679;45.190;5.722;2022-10-17T18:32:02;7.90;;;2.67;;
32172;SDS011;18679;45.190;5.722;2022-10-17T18:35:04;15.40;;;2.92;;
32172;SDS011;18679;45.190;5.722;2022-10-17T18:38:05;11.57;;;3.50;;
32172;SDS011;18679;45.190;5.722;2022-10-17T18:41:08;12.32;;;2.75;;
32172;SDS011;18679;45.190;5.722;2022-10-17T18:44:10;8.25;;;2.78;;
32172;SDS011;18679;45.190;5.722;2022-10-17T18:47:12;6.70;;;3.17;;
32172;SDS011;18679;45.190;5.722;2022-10-17T18:50:13;10.60;;;3.03;;
32172;SDS011;18679;45.190;5.722;2022-10-17T18:53:15;13.80;;;3.50;;
32172;SDS011;18679;45.190;5.722;2022-10-17T18:56:16;7.35;;;3.58;;
32172;SDS011;18679;45.190;5.722;2022-10-17T18:59:18;8.60;;;3.20;;
32172;SDS011;18679;45.190;5.722;2022-10-17T19:02:20;8.52;;;3.30;;
32172;SDS011;18679;45.190;5.722;2022-10-17T19:05:24;12.27;;;3.30;;
32172;SDS011;18679;45.190;5.722;2022-10-17T19:08:27;19.42;;;3.50;;
32172;SDS011;18679;45.190;5.722;2022-10-17T19:11:29;8.82;;;3.20;;
32172;SDS011;18679;45.190;5.722;2022-10-17T19:14:31;10.02;;;3.65;;
32172;SDS011;18679;45.190;5.722;2022-10-17T19:17:32;8.45;;;3.65;;
32172;SDS011;18679;45.190;5.722;2022-10-17T19:20:33;12.05;;;3.83;;
32172;SDS011;18679;45.190;5.722;2022-10-17T19:23:34;12.25;;;3.55;;
32172;SDS011;18679;45.190;5.722;2022-10-17T19:26:36;7.55;;;3.47;;
32172;SDS011;18679;45.190;5.722;2022-10-17T19:29:38;5.82;;;2.83;;
32172;SDS011;18679;45.190;5.722;2022-10-17T19:32:44;7.30;;;3.20;;
32172;SDS011;18679;45.190;5.722;2022-10-17T19:35:56;7.72;;;3.58;;
32172;SDS011;18679;45.190;5.722;2022-10-17T19:38:59;11.93;;;2.95;;
32172;SDS011;18679;45.190;5.722;2022-10-17T19:42:01;4.72;;;2.90;;
32172;SDS011;18679;45.190;5.722;2022-10-17T19:45:02;4.25;;;2.90;;
32172;SDS011;18679;45.190;5.722;2022-10-17T19:48:04;8.48;;;2.95;;
32172;SDS011;18679;45.190;5.722;2022-10-17T19:51:06;7.78;;;2.80;;
32172;SDS011;18679;45.190;5.722;2022-10-17T19:54:09;5.88;;;2.85;;
32172;SDS011;18679;45.190;5.722;2022-10-17T19:57:10;7.05;;;2.70;;
32172;SDS011;18679;45.190;5.722;2022-10-17T20:00:12;9.40;;;2.40;;
32172;SDS011;18679;45.190;5.722;2022-10-17T20:03:14;4.55;;;2.45;;
32172;SDS011;18679;45.190;5.722;2022-10-17T20:06:15;7.07;;;2.85;;
32172;SDS011;18679;45.190;5.722;2022-10-17T20:09:16;6.47;;;2.95;;
32172;SDS011;18679;45.190;5.722;2022-10-17T20:12:17;8.07;;;2.75;;
32172;SDS011;18679;45.190;5.722;2022-10-17T20:15:18;11.48;;;2.58;;
32172;SDS011;18679;45.190;5.722;2022-10-17T20:18:20;9.00;;;3.15;;
32172;SDS011;18679;45.190;5.722;2022-10-17T20:21:22;12.85;;;2.65;;
32172;SDS011;18679;45.190;5.722;2022-10-17T20:24:26;13.13;;;2.67;;
32172;SDS011;18679;45.190;5.722;2022-10-17T20:27:27;7.25;;;3.20;;
32172;SDS011;18679;45.190;5.722;2022-10-17T20:30:28;8.00;;;3.10;;
32172;SDS011;18679;45.190;5.722;2022-10-17T20:33:30;16.00;;;3.50;;